EFW12LS LMML-EGKK
Flight info
| Callsign | EFW12LS |
|---|---|
| Flight time | 3h 2m |
| Altitude | 36000 |
| Route | GZO M622 SOPIR DCT ADEXI DCT GIANO DCT GILIO/N0447F380 DCT EMBOS DCT GIPIX DCT ABESI DCT UTAVO DCT ELMUR L613 HOC DCT LUL DCT RLP DCT ROTSI DCT KOTUN DCT NINAL DCT KESAX DCT KUNAV |
| Aircraft | A320/M-SDE3FGHIRWY/LB1 |
Departure
| Time | 2026-05-07 12:23 |
|---|---|
| Airport | Malta International Airport (LMML) |
Arrival
| Time | 2026-05-07 15:26 |
|---|---|
| Airport | London Gatwick Airport (EGKK) |
| Time | Latitude | Longitude | Altitude | Speed | Heading |
|---|---|---|---|---|---|
| 2026-05-07 12:00 | 35.84859 | 14.49456 | 246 ft | 0 kts | 0° |
| 2026-05-07 12:15 | 35.84846 | 14.49456 | 246 ft | 2 kts | 0° |
| 2026-05-07 12:15 | 35.84831 | 14.49456 | 247 ft | 2 kts | 0° |
| 2026-05-07 12:16 | 35.84816 | 14.49456 | 247 ft | 2 kts | 360° |
| 2026-05-07 12:16 | 35.84806 | 14.49456 | 247 ft | 1 kts | 0° |
| 2026-05-07 12:16 | 35.84791 | 14.49458 | 246 ft | 2 kts | 339° |
| 2026-05-07 12:16 | 35.84778 | 14.49466 | 246 ft | 2 kts | 323° |
| 2026-05-07 12:17 | 35.84772 | 14.49472 | 246 ft | 1 kts | 314° |
| 2026-05-07 12:17 | 35.84768 | 14.49477 | 246 ft | 0 kts | 314° |
| 2026-05-07 12:17 | 35.84768 | 14.49476 | 246 ft | 0 kts | 314° |
| 2026-05-07 12:18 | 35.84769 | 14.49476 | 246 ft | 1 kts | 314° |
| 2026-05-07 12:19 | 35.84807 | 14.49430 | 247 ft | 13 kts | 316° |
| 2026-05-07 12:19 | 35.84881 | 14.49340 | 247 ft | 15 kts | 314° |
| 2026-05-07 12:19 | 35.84938 | 14.49233 | 248 ft | 15 kts | 278° |
| 2026-05-07 12:19 | 35.84907 | 14.49114 | 251 ft | 12 kts | 277° |
| 2026-05-07 12:20 | 35.84960 | 14.49011 | 251 ft | 16 kts | 294° |
| 2026-05-07 12:20 | 35.85001 | 14.48864 | 254 ft | 18 kts | 284° |
| 2026-05-07 12:20 | 35.85035 | 14.48718 | 261 ft | 18 kts | 289° |
| 2026-05-07 12:20 | 35.85107 | 14.48555 | 261 ft | 24 kts | 308° |
| 2026-05-07 12:21 | 35.85228 | 14.48397 | 264 ft | 27 kts | 314° |
| 2026-05-07 12:21 | 35.85365 | 14.48227 | 264 ft | 28 kts | 315° |
| 2026-05-07 12:21 | 35.85513 | 14.48086 | 264 ft | 25 kts | 332° |
| 2026-05-07 12:21 | 35.85647 | 14.48025 | 267 ft | 14 kts | 339° |
| 2026-05-07 12:22 | 35.85674 | 14.47963 | 269 ft | 7 kts | 244° |
| 2026-05-07 12:22 | 35.85647 | 14.47925 | 268 ft | 7 kts | 210° |
| 2026-05-07 12:22 | 35.85581 | 14.47957 | 265 ft | 19 kts | 135° |
| 2026-05-07 12:22 | 35.85315 | 14.48284 | 264 ft | 86 kts | 135° |
| 2026-05-07 12:23 | 35.84753 | 14.48983 | 256 ft | 142 kts | 135° |
| 2026-05-07 12:23 | 35.84010 | 14.49919 | 595 ft | 156 kts | 137° |
| 2026-05-07 12:23 | 35.83242 | 14.50856 | 1146 ft | 158 kts | 143° |
| 2026-05-07 12:23 | 35.82258 | 14.51331 | 1715 ft | 156 kts | 184° |
| 2026-05-07 12:24 | 35.81275 | 14.50866 | 2207 ft | 158 kts | 221° |
| 2026-05-07 12:24 | 35.80613 | 14.49714 | 2518 ft | 173 kts | 239° |
| 2026-05-07 12:24 | 35.79979 | 14.48380 | 2833 ft | 189 kts | 240° |
| 2026-05-07 12:24 | 35.79279 | 14.46928 | 3170 ft | 205 kts | 240° |
| 2026-05-07 12:25 | 35.78514 | 14.45349 | 3500 ft | 225 kts | 240° |
| 2026-05-07 12:25 | 35.77705 | 14.43690 | 4238 ft | 227 kts | 241° |
| 2026-05-07 12:25 | 35.77107 | 14.41919 | 4887 ft | 232 kts | 261° |
| 2026-05-07 12:25 | 35.77182 | 14.39876 | 5338 ft | 250 kts | 284° |
| 2026-05-07 12:26 | 35.77856 | 14.37910 | 6077 ft | 255 kts | 291° |
| 2026-05-07 12:26 | 35.78581 | 14.35915 | 6906 ft | 256 kts | 291° |
| 2026-05-07 12:26 | 35.79289 | 14.33939 | 7674 ft | 258 kts | 291° |
| 2026-05-07 12:26 | 35.80220 | 14.32052 | 8404 ft | 268 kts | 309° |
| 2026-05-07 12:27 | 35.81813 | 14.30762 | 9144 ft | 280 kts | 329° |
| 2026-05-07 12:27 | 35.83634 | 14.29898 | 9877 ft | 285 kts | 333° |
| 2026-05-07 12:27 | 35.85523 | 14.29079 | 10410 ft | 294 kts | 333° |
| 2026-05-07 12:27 | 35.87501 | 14.28199 | 10734 ft | 310 kts | 333° |
| 2026-05-07 12:28 | 35.89568 | 14.27250 | 11197 ft | 320 kts | 333° |
| 2026-05-07 12:28 | 35.91645 | 14.26284 | 11789 ft | 324 kts | 332° |
| 2026-05-07 12:28 | 35.93766 | 14.25283 | 12427 ft | 327 kts | 332° |
| 2026-05-07 12:28 | 35.95874 | 14.24285 | 13061 ft | 329 kts | 332° |
| 2026-05-07 12:29 | 35.98024 | 14.23262 | 13658 ft | 332 kts | 332° |
| 2026-05-07 12:29 | 36.00173 | 14.22234 | 14236 ft | 335 kts | 332° |
| 2026-05-07 12:29 | 36.02338 | 14.21143 | 14806 ft | 336 kts | 328° |
| 2026-05-07 12:29 | 36.04392 | 14.19824 | 15401 ft | 334 kts | 322° |
| 2026-05-07 12:30 | 36.06346 | 14.18253 | 15989 ft | 333 kts | 318° |
| 2026-05-07 12:30 | 36.08236 | 14.16596 | 16599 ft | 334 kts | 317° |
| 2026-05-07 12:30 | 36.10101 | 14.14939 | 17164 ft | 335 kts | 317° |
| 2026-05-07 12:30 | 36.12003 | 14.13252 | 17728 ft | 337 kts | 316° |
| 2026-05-07 12:31 | 36.13893 | 14.11572 | 18278 ft | 338 kts | 316° |
| 2026-05-07 12:31 | 36.15825 | 14.09853 | 18787 ft | 340 kts | 316° |
| 2026-05-07 12:31 | 36.17740 | 14.08147 | 19266 ft | 343 kts | 317° |
| 2026-05-07 12:31 | 36.19685 | 14.06418 | 19730 ft | 346 kts | 317° |
| 2026-05-07 12:32 | 36.21650 | 14.04676 | 20196 ft | 349 kts | 317° |
| 2026-05-07 12:32 | 36.23625 | 14.02920 | 20648 ft | 351 kts | 316° |
| 2026-05-07 12:32 | 36.25601 | 14.01161 | 21040 ft | 355 kts | 317° |
| 2026-05-07 12:32 | 36.27633 | 13.99352 | 21460 ft | 358 kts | 317° |
| 2026-05-07 12:33 | 36.31656 | 13.95770 | 22384 ft | 360 kts | 317° |
| 2026-05-07 12:33 | 36.33716 | 13.93933 | 22794 ft | 363 kts | 317° |
| 2026-05-07 12:33 | 36.35770 | 13.92105 | 23178 ft | 366 kts | 317° |
| 2026-05-07 12:34 | 36.37831 | 13.90263 | 23558 ft | 369 kts | 317° |
| 2026-05-07 12:34 | 36.39926 | 13.88395 | 23981 ft | 370 kts | 317° |
| 2026-05-07 12:34 | 36.42011 | 13.86535 | 24407 ft | 371 kts | 317° |
| 2026-05-07 12:34 | 36.44092 | 13.84670 | 24850 ft | 372 kts | 316° |
| 2026-05-07 12:35 | 36.46194 | 13.82789 | 25183 ft | 375 kts | 317° |
| 2026-05-07 12:35 | 36.48310 | 13.80887 | 25537 ft | 378 kts | 317° |
| 2026-05-07 12:35 | 36.50449 | 13.78977 | 25938 ft | 379 kts | 316° |
| 2026-05-07 12:35 | 36.52584 | 13.77063 | 26248 ft | 382 kts | 316° |
| 2026-05-07 12:36 | 36.54765 | 13.75114 | 26631 ft | 384 kts | 316° |
| 2026-05-07 12:36 | 36.56917 | 13.73181 | 26969 ft | 386 kts | 316° |
| 2026-05-07 12:36 | 36.59110 | 13.71205 | 27273 ft | 388 kts | 316° |
| 2026-05-07 12:36 | 36.61290 | 13.69247 | 27621 ft | 390 kts | 316° |
| 2026-05-07 12:37 | 36.63501 | 13.67264 | 28032 ft | 390 kts | 316° |
| 2026-05-07 12:37 | 36.65692 | 13.65292 | 28388 ft | 390 kts | 316° |
| 2026-05-07 12:37 | 36.67899 | 13.63309 | 28678 ft | 393 kts | 315° |
| 2026-05-07 12:37 | 36.70089 | 13.61330 | 28955 ft | 395 kts | 315° |
| 2026-05-07 12:38 | 36.72321 | 13.59315 | 29258 ft | 397 kts | 315° |
| 2026-05-07 12:38 | 36.74565 | 13.57284 | 29641 ft | 396 kts | 315° |
| 2026-05-07 12:38 | 36.76793 | 13.55275 | 29975 ft | 397 kts | 315° |
| 2026-05-07 12:38 | 36.79018 | 13.53264 | 30156 ft | 401 kts | 315° |
| 2026-05-07 12:39 | 36.81277 | 13.51215 | 30427 ft | 402 kts | 315° |
| 2026-05-07 12:39 | 36.83602 | 13.49110 | 30775 ft | 402 kts | 315° |
| 2026-05-07 12:39 | 36.85913 | 13.47020 | 31012 ft | 405 kts | 315° |
| 2026-05-07 12:39 | 36.88191 | 13.44951 | 31192 ft | 408 kts | 315° |
| 2026-05-07 12:40 | 36.90477 | 13.42879 | 31482 ft | 408 kts | 315° |
| 2026-05-07 12:40 | 36.92799 | 13.40768 | 31727 ft | 410 kts | 315° |
| 2026-05-07 12:40 | 36.95074 | 13.38698 | 31998 ft | 410 kts | 314° |
| 2026-05-07 12:40 | 36.97396 | 13.36587 | 32339 ft | 409 kts | 315° |
| 2026-05-07 12:41 | 36.99690 | 13.34502 | 32624 ft | 409 kts | 314° |
| 2026-05-07 12:41 | 37.01971 | 13.32427 | 32948 ft | 409 kts | 313° |
| 2026-05-07 12:41 | 37.04273 | 13.30324 | 33333 ft | 407 kts | 314° |
| 2026-05-07 12:41 | 37.06535 | 13.28264 | 33756 ft | 404 kts | 313° |
| 2026-05-07 12:42 | 37.08818 | 13.26179 | 34092 ft | 403 kts | 313° |
| 2026-05-07 12:42 | 37.11080 | 13.24108 | 34339 ft | 405 kts | 313° |
| 2026-05-07 12:42 | 37.13321 | 13.22052 | 34668 ft | 404 kts | 313° |
| 2026-05-07 12:42 | 37.15590 | 13.19973 | 34978 ft | 403 kts | 314° |
| 2026-05-07 12:43 | 37.17865 | 13.17895 | 35268 ft | 403 kts | 313° |
| 2026-05-07 12:43 | 37.20126 | 13.15813 | 35527 ft | 402 kts | 313° |
| 2026-05-07 12:43 | 37.22351 | 13.13776 | 35781 ft | 402 kts | 313° |
| 2026-05-07 12:43 | 37.24636 | 13.11674 | 35844 ft | 404 kts | 313° |
| 2026-05-07 12:44 | 37.29206 | 13.07584 | 35854 ft | 410 kts | 316° |
| 2026-05-07 12:44 | 37.34186 | 13.03932 | 35858 ft | 418 kts | 322° |
| 2026-05-07 12:45 | 37.39549 | 13.00902 | 35857 ft | 428 kts | 328° |
| 2026-05-07 12:45 | 37.45218 | 12.98542 | 35860 ft | 434 kts | 332° |
| 2026-05-07 12:46 | 37.50992 | 12.96398 | 35861 ft | 433 kts | 332° |
| 2026-05-07 12:46 | 37.56746 | 12.94268 | 35857 ft | 433 kts | 332° |
| 2026-05-07 12:47 | 37.62541 | 12.92102 | 35848 ft | 432 kts | 332° |
| 2026-05-07 12:47 | 37.68301 | 12.89948 | 35852 ft | 430 kts | 332° |
| 2026-05-07 12:48 | 37.74034 | 12.87801 | 35854 ft | 429 kts | 332° |
| 2026-05-07 12:48 | 37.79768 | 12.85652 | 35865 ft | 432 kts | 331° |
| 2026-05-07 12:49 | 37.85499 | 12.83493 | 35866 ft | 429 kts | 332° |
| 2026-05-07 12:49 | 37.91249 | 12.81328 | 35875 ft | 430 kts | 331° |
| 2026-05-07 12:50 | 37.96983 | 12.79166 | 35880 ft | 432 kts | 332° |
| 2026-05-07 12:50 | 38.02753 | 12.76985 | 35892 ft | 429 kts | 332° |
| 2026-05-07 12:51 | 38.08448 | 12.74832 | 35893 ft | 428 kts | 331° |
| 2026-05-07 12:51 | 38.14170 | 12.72660 | 35886 ft | 428 kts | 332° |
| 2026-05-07 12:52 | 38.19884 | 12.70492 | 35877 ft | 428 kts | 331° |
| 2026-05-07 12:52 | 38.25563 | 12.68335 | 35875 ft | 427 kts | 331° |
| 2026-05-07 12:53 | 38.31271 | 12.66155 | 35870 ft | 430 kts | 331° |
| 2026-05-07 12:53 | 38.36980 | 12.63982 | 35870 ft | 429 kts | 330° |
| 2026-05-07 12:54 | 38.42709 | 12.61791 | 35874 ft | 427 kts | 330° |
| 2026-05-07 12:54 | 38.48411 | 12.59607 | 35873 ft | 429 kts | 330° |
| 2026-05-07 12:55 | 38.54096 | 12.57426 | 35874 ft | 430 kts | 330° |
| 2026-05-07 12:55 | 38.59835 | 12.55216 | 35877 ft | 428 kts | 330° |
| 2026-05-07 12:56 | 38.65498 | 12.53042 | 35875 ft | 427 kts | 330° |
| 2026-05-07 12:56 | 38.71193 | 12.50849 | 35874 ft | 428 kts | 329° |
| 2026-05-07 12:57 | 38.76896 | 12.48639 | 35877 ft | 429 kts | 329° |
| 2026-05-07 12:57 | 38.82619 | 12.46429 | 35881 ft | 426 kts | 329° |
| 2026-05-07 12:58 | 38.88292 | 12.44219 | 35879 ft | 424 kts | 329° |
| 2026-05-07 12:58 | 38.93910 | 12.41904 | 35885 ft | 427 kts | 328° |
| 2026-05-07 12:59 | 38.99577 | 12.39550 | 35879 ft | 429 kts | 328° |
| 2026-05-07 12:59 | 39.05243 | 12.37198 | 35884 ft | 428 kts | 328° |
| 2026-05-07 13:00 | 39.10871 | 12.34871 | 35890 ft | 425 kts | 328° |
| 2026-05-07 13:00 | 39.16463 | 12.32552 | 35895 ft | 421 kts | 327° |
| 2026-05-07 13:01 | 39.22032 | 12.30234 | 35891 ft | 422 kts | 327° |
| 2026-05-07 13:01 | 39.27674 | 12.27876 | 35902 ft | 426 kts | 327° |
| 2026-05-07 13:02 | 39.33255 | 12.25550 | 35905 ft | 424 kts | 327° |
| 2026-05-07 13:02 | 39.38843 | 12.23220 | 35916 ft | 421 kts | 327° |
| 2026-05-07 13:03 | 39.44419 | 12.20882 | 35915 ft | 421 kts | 327° |
| 2026-05-07 13:03 | 39.49992 | 12.18540 | 35932 ft | 421 kts | 328° |
| 2026-05-07 13:04 | 39.55547 | 12.16214 | 35930 ft | 419 kts | 327° |
| 2026-05-07 13:04 | 39.61078 | 12.13879 | 35934 ft | 420 kts | 327° |
| 2026-05-07 13:05 | 39.66668 | 12.11522 | 35935 ft | 422 kts | 327° |
| 2026-05-07 13:05 | 39.72180 | 12.09199 | 35932 ft | 416 kts | 327° |
| 2026-05-07 13:06 | 39.77688 | 12.06871 | 35939 ft | 419 kts | 327° |
| 2026-05-07 13:06 | 39.83211 | 12.04527 | 35941 ft | 416 kts | 327° |
| 2026-05-07 13:07 | 39.88683 | 12.02207 | 35940 ft | 415 kts | 327° |
| 2026-05-07 13:07 | 39.94186 | 11.99867 | 35950 ft | 416 kts | 327° |
| 2026-05-07 13:08 | 39.99692 | 11.97518 | 35942 ft | 415 kts | 327° |
| 2026-05-07 13:08 | 40.05201 | 11.95173 | 35961 ft | 415 kts | 327° |
| 2026-05-07 13:09 | 40.10684 | 11.92828 | 35958 ft | 415 kts | 327° |
| 2026-05-07 13:09 | 40.16280 | 11.90429 | 35957 ft | 418 kts | 327° |
| 2026-05-07 13:10 | 40.21800 | 11.88059 | 35956 ft | 419 kts | 327° |
| 2026-05-07 13:10 | 40.27294 | 11.85702 | 35947 ft | 418 kts | 327° |
| 2026-05-07 13:11 | 40.32839 | 11.83318 | 35945 ft | 420 kts | 327° |
| 2026-05-07 13:11 | 40.38335 | 11.80951 | 35955 ft | 416 kts | 328° |
| 2026-05-07 13:12 | 40.43833 | 11.78577 | 35952 ft | 418 kts | 328° |
| 2026-05-07 13:12 | 40.49379 | 11.76173 | 35949 ft | 419 kts | 328° |
| 2026-05-07 13:13 | 40.54905 | 11.73781 | 35952 ft | 418 kts | 328° |
| 2026-05-07 13:13 | 40.60479 | 11.71363 | 35947 ft | 423 kts | 328° |
| 2026-05-07 13:14 | 40.66008 | 11.68966 | 35955 ft | 418 kts | 328° |
| 2026-05-07 13:14 | 40.71547 | 11.66544 | 35957 ft | 424 kts | 328° |
| 2026-05-07 13:15 | 40.77195 | 11.64077 | 35961 ft | 424 kts | 328° |
| 2026-05-07 13:15 | 40.82754 | 11.61654 | 35948 ft | 419 kts | 328° |
| 2026-05-07 13:16 | 40.88276 | 11.59230 | 35953 ft | 422 kts | 329° |
| 2026-05-07 13:16 | 40.93848 | 11.56789 | 35949 ft | 426 kts | 328° |
| 2026-05-07 13:17 | 40.99503 | 11.54297 | 35957 ft | 425 kts | 329° |
| 2026-05-07 13:17 | 41.05093 | 11.51841 | 35947 ft | 424 kts | 329° |
| 2026-05-07 13:18 | 41.10691 | 11.49377 | 35944 ft | 425 kts | 329° |
| 2026-05-07 13:18 | 41.16298 | 11.46901 | 35948 ft | 423 kts | 329° |
| 2026-05-07 13:19 | 41.21905 | 11.44417 | 35948 ft | 430 kts | 329° |
| 2026-05-07 13:19 | 41.27542 | 11.41918 | 35952 ft | 427 kts | 330° |
| 2026-05-07 13:20 | 41.33196 | 11.39413 | 35949 ft | 427 kts | 330° |
| 2026-05-07 13:20 | 41.38849 | 11.36894 | 35954 ft | 429 kts | 330° |
| 2026-05-07 13:21 | 41.44503 | 11.34372 | 35959 ft | 429 kts | 330° |
| 2026-05-07 13:21 | 41.47378 | 11.33093 | 35687 ft | 430 kts | 330° |
| 2026-05-07 13:21 | 41.50203 | 11.31826 | 35834 ft | 431 kts | 330° |
| 2026-05-07 13:22 | 41.55897 | 11.29282 | 35933 ft | 434 kts | 330° |
| 2026-05-07 13:22 | 41.61580 | 11.26735 | 35958 ft | 430 kts | 330° |
| 2026-05-07 13:23 | 41.67275 | 11.24172 | 35964 ft | 433 kts | 331° |
| 2026-05-07 13:23 | 41.73000 | 11.21600 | 35964 ft | 435 kts | 331° |
| 2026-05-07 13:24 | 41.78711 | 11.19023 | 35968 ft | 434 kts | 331° |
| 2026-05-07 13:24 | 41.84432 | 11.16443 | 35969 ft | 436 kts | 331° |
| 2026-05-07 13:25 | 41.90154 | 11.13850 | 35967 ft | 436 kts | 332° |
| 2026-05-07 13:25 | 41.95910 | 11.11241 | 35957 ft | 436 kts | 332° |
| 2026-05-07 13:26 | 42.01641 | 11.08641 | 35957 ft | 438 kts | 332° |
| 2026-05-07 13:26 | 42.07402 | 11.06019 | 35954 ft | 437 kts | 332° |
| 2026-05-07 13:27 | 42.13193 | 11.03380 | 35953 ft | 437 kts | 332° |
| 2026-05-07 13:27 | 42.18969 | 11.00743 | 35953 ft | 435 kts | 332° |
| 2026-05-07 13:28 | 42.24702 | 10.98116 | 35954 ft | 437 kts | 332° |
| 2026-05-07 13:28 | 42.30425 | 10.95489 | 35956 ft | 437 kts | 332° |
| 2026-05-07 13:29 | 42.36187 | 10.92840 | 35953 ft | 438 kts | 332° |
| 2026-05-07 13:29 | 42.41994 | 10.90308 | 35955 ft | 438 kts | 334° |
| 2026-05-07 13:30 | 42.47819 | 10.87837 | 35959 ft | 439 kts | 334° |
| 2026-05-07 13:30 | 42.53603 | 10.85368 | 35958 ft | 439 kts | 334° |
| 2026-05-07 13:31 | 42.59432 | 10.82868 | 35958 ft | 439 kts | 334° |
| 2026-05-07 13:31 | 42.65250 | 10.80365 | 35959 ft | 439 kts | 334° |
| 2026-05-07 13:32 | 42.71060 | 10.77858 | 35960 ft | 438 kts | 334° |
| 2026-05-07 13:32 | 42.76864 | 10.75352 | 35964 ft | 438 kts | 334° |
| 2026-05-07 13:33 | 42.82661 | 10.72841 | 35969 ft | 438 kts | 334° |
| 2026-05-07 13:33 | 42.88440 | 10.70333 | 35968 ft | 438 kts | 334° |
| 2026-05-07 13:34 | 42.97129 | 10.66553 | 35967 ft | 437 kts | 334° |
| 2026-05-07 13:35 | 43.02901 | 10.64036 | 35968 ft | 437 kts | 334° |
| 2026-05-07 13:35 | 43.08686 | 10.61509 | 35968 ft | 437 kts | 334° |
| 2026-05-07 13:36 | 43.14520 | 10.58955 | 35968 ft | 436 kts | 334° |
| 2026-05-07 13:36 | 43.20321 | 10.56410 | 35967 ft | 437 kts | 334° |
| 2026-05-07 13:37 | 43.26069 | 10.53884 | 35966 ft | 436 kts | 334° |
| 2026-05-07 13:37 | 43.31871 | 10.51327 | 35967 ft | 437 kts | 334° |
| 2026-05-07 13:38 | 43.37630 | 10.48786 | 35969 ft | 437 kts | 334° |
| 2026-05-07 13:38 | 43.43438 | 10.46217 | 35968 ft | 437 kts | 334° |
| 2026-05-07 13:39 | 43.49237 | 10.43646 | 35970 ft | 438 kts | 334° |
| 2026-05-07 13:39 | 43.55020 | 10.41079 | 35977 ft | 438 kts | 334° |
| 2026-05-07 13:40 | 43.60802 | 10.38507 | 35983 ft | 437 kts | 334° |
| 2026-05-07 13:40 | 43.66586 | 10.35929 | 35981 ft | 437 kts | 334° |
| 2026-05-07 13:41 | 43.72364 | 10.33346 | 35982 ft | 437 kts | 334° |
| 2026-05-07 13:41 | 43.78122 | 10.30769 | 35984 ft | 436 kts | 334° |
| 2026-05-07 13:42 | 43.83813 | 10.27982 | 35981 ft | 432 kts | 329° |
| 2026-05-07 13:42 | 43.89233 | 10.24494 | 35982 ft | 427 kts | 326° |
| 2026-05-07 13:43 | 43.94557 | 10.20838 | 35983 ft | 428 kts | 326° |
| 2026-05-07 13:43 | 43.99895 | 10.17175 | 35981 ft | 428 kts | 326° |
| 2026-05-07 13:44 | 44.05259 | 10.13558 | 35980 ft | 431 kts | 328° |
| 2026-05-07 13:44 | 44.10856 | 10.10505 | 35984 ft | 435 kts | 332° |
| 2026-05-07 13:45 | 44.16520 | 10.07687 | 35989 ft | 435 kts | 333° |
| 2026-05-07 13:45 | 44.22195 | 10.04860 | 35982 ft | 435 kts | 333° |
| 2026-05-07 13:46 | 44.27882 | 10.02016 | 35985 ft | 435 kts | 333° |
| 2026-05-07 13:46 | 44.33595 | 9.99150 | 35979 ft | 435 kts | 333° |
| 2026-05-07 13:47 | 44.39274 | 9.96294 | 35965 ft | 435 kts | 333° |
| 2026-05-07 13:47 | 44.44946 | 9.93433 | 35974 ft | 435 kts | 333° |
| 2026-05-07 13:48 | 44.50667 | 9.90543 | 35968 ft | 435 kts | 333° |
| 2026-05-07 13:48 | 44.56348 | 9.87667 | 35964 ft | 435 kts | 333° |
| 2026-05-07 13:49 | 44.62049 | 9.84774 | 35961 ft | 435 kts | 333° |
| 2026-05-07 13:49 | 44.67726 | 9.81886 | 35960 ft | 434 kts | 333° |
| 2026-05-07 13:50 | 44.73403 | 9.78994 | 35956 ft | 434 kts | 333° |
| 2026-05-07 13:50 | 44.79062 | 9.76105 | 35954 ft | 434 kts | 333° |
| 2026-05-07 13:51 | 44.84713 | 9.73213 | 35951 ft | 434 kts | 333° |
| 2026-05-07 13:51 | 44.90367 | 9.70313 | 35950 ft | 434 kts | 333° |
| 2026-05-07 13:52 | 44.96029 | 9.67405 | 35942 ft | 433 kts | 333° |
| 2026-05-07 13:52 | 45.01700 | 9.64483 | 35937 ft | 434 kts | 333° |
| 2026-05-07 13:53 | 45.07354 | 9.61567 | 35894 ft | 434 kts | 333° |
| 2026-05-07 13:53 | 45.13065 | 9.58612 | 35887 ft | 435 kts | 333° |
| 2026-05-07 13:54 | 45.18706 | 9.55688 | 35897 ft | 435 kts | 334° |
| 2026-05-07 13:54 | 45.24371 | 9.52748 | 35934 ft | 435 kts | 334° |
| 2026-05-07 13:55 | 45.30047 | 9.49795 | 35922 ft | 435 kts | 334° |
| 2026-05-07 13:55 | 45.35712 | 9.46839 | 35914 ft | 435 kts | 334° |
| 2026-05-07 13:56 | 45.41389 | 9.43872 | 35914 ft | 435 kts | 334° |
| 2026-05-07 13:56 | 45.47068 | 9.40897 | 35925 ft | 436 kts | 334° |
| 2026-05-07 13:57 | 45.52742 | 9.37918 | 35928 ft | 436 kts | 334° |
| 2026-05-07 13:57 | 45.58393 | 9.34947 | 35931 ft | 436 kts | 333° |
| 2026-05-07 13:58 | 45.64080 | 9.31948 | 35939 ft | 436 kts | 334° |
| 2026-05-07 13:58 | 45.69828 | 9.28913 | 35929 ft | 436 kts | 333° |
| 2026-05-07 13:59 | 45.75519 | 9.25899 | 35931 ft | 436 kts | 334° |
| 2026-05-07 13:59 | 45.81187 | 9.22890 | 35949 ft | 436 kts | 334° |
| 2026-05-07 14:00 | 45.86836 | 9.19886 | 36195 ft | 435 kts | 334° |
| 2026-05-07 14:00 | 45.89682 | 9.18371 | 35789 ft | 433 kts | 334° |
| 2026-05-07 14:00 | 45.92504 | 9.16866 | 35876 ft | 434 kts | 334° |
| 2026-05-07 14:01 | 45.98166 | 9.13840 | 35928 ft | 435 kts | 334° |
| 2026-05-07 14:01 | 46.00974 | 9.12337 | 36120 ft | 434 kts | 334° |
| 2026-05-07 14:01 | 46.03821 | 9.10813 | 36064 ft | 433 kts | 334° |
| 2026-05-07 14:02 | 46.09431 | 9.07806 | 35996 ft | 433 kts | 335° |
| 2026-05-07 14:02 | 46.15205 | 9.05244 | 35974 ft | 437 kts | 341° |
| 2026-05-07 14:03 | 46.21195 | 9.03614 | 35979 ft | 441 kts | 347° |
| 2026-05-07 14:03 | 46.27337 | 9.02725 | 35976 ft | 443 kts | 349° |
| 2026-05-07 14:04 | 46.33440 | 9.01934 | 35986 ft | 442 kts | 349° |
| 2026-05-07 14:04 | 46.39566 | 9.01121 | 35988 ft | 442 kts | 349° |
| 2026-05-07 14:05 | 46.45676 | 9.00299 | 35976 ft | 442 kts | 350° |
| 2026-05-07 14:05 | 46.51781 | 8.99478 | 35953 ft | 442 kts | 350° |
| 2026-05-07 14:06 | 46.57889 | 8.98651 | 35952 ft | 442 kts | 350° |
| 2026-05-07 14:06 | 46.63983 | 8.97829 | 35967 ft | 442 kts | 350° |
| 2026-05-07 14:07 | 46.70089 | 8.97001 | 35977 ft | 441 kts | 350° |
| 2026-05-07 14:07 | 46.76192 | 8.96171 | 35991 ft | 441 kts | 351° |
| 2026-05-07 14:08 | 46.82269 | 8.95346 | 35989 ft | 442 kts | 350° |
| 2026-05-07 14:08 | 46.88388 | 8.94512 | 35976 ft | 442 kts | 350° |
| 2026-05-07 14:09 | 46.94488 | 8.93676 | 35961 ft | 442 kts | 351° |
| 2026-05-07 14:09 | 47.00596 | 8.92840 | 35960 ft | 442 kts | 351° |
| 2026-05-07 14:10 | 47.06678 | 8.91626 | 35952 ft | 436 kts | 341° |
| 2026-05-07 14:10 | 47.12117 | 8.88133 | 35982 ft | 427 kts | 324° |
| 2026-05-07 14:11 | 47.16554 | 8.82470 | 36003 ft | 421 kts | 307° |
| 2026-05-07 14:11 | 47.19626 | 8.75225 | 36002 ft | 417 kts | 291° |
| 2026-05-07 14:12 | 47.21698 | 8.67290 | 36003 ft | 417 kts | 289° |
| 2026-05-07 14:12 | 47.23691 | 8.59323 | 36008 ft | 417 kts | 289° |
| 2026-05-07 14:13 | 47.25688 | 8.51367 | 36008 ft | 417 kts | 289° |
| 2026-05-07 14:13 | 47.27699 | 8.43385 | 36010 ft | 417 kts | 289° |
| 2026-05-07 14:14 | 47.29704 | 8.35411 | 36010 ft | 416 kts | 289° |
| 2026-05-07 14:14 | 47.31692 | 8.27465 | 36005 ft | 416 kts | 288° |
| 2026-05-07 14:15 | 47.33678 | 8.19481 | 36000 ft | 416 kts | 288° |
| 2026-05-07 14:15 | 47.35662 | 8.11476 | 36006 ft | 416 kts | 288° |
| 2026-05-07 14:16 | 47.37628 | 8.03510 | 35998 ft | 416 kts | 288° |
| 2026-05-07 14:16 | 47.39599 | 7.95493 | 35999 ft | 416 kts | 288° |
| 2026-05-07 14:17 | 47.41559 | 7.87499 | 35989 ft | 417 kts | 289° |
| 2026-05-07 14:17 | 47.43527 | 7.79439 | 35993 ft | 417 kts | 289° |
| 2026-05-07 14:18 | 47.45470 | 7.71445 | 35989 ft | 417 kts | 288° |
| 2026-05-07 14:18 | 47.47195 | 7.63313 | 35998 ft | 416 kts | 284° |
| 2026-05-07 14:19 | 47.48602 | 7.55000 | 35997 ft | 416 kts | 283° |
| 2026-05-07 14:19 | 47.49971 | 7.46786 | 35995 ft | 416 kts | 283° |
| 2026-05-07 14:20 | 47.51344 | 7.38516 | 36000 ft | 416 kts | 283° |
| 2026-05-07 14:20 | 47.52717 | 7.30205 | 35999 ft | 415 kts | 283° |
| 2026-05-07 14:21 | 47.54078 | 7.21936 | 35998 ft | 415 kts | 283° |
| 2026-05-07 14:21 | 47.55430 | 7.13689 | 35993 ft | 416 kts | 283° |
| 2026-05-07 14:22 | 47.56786 | 7.05366 | 35993 ft | 416 kts | 283° |
| 2026-05-07 14:22 | 47.58125 | 6.97111 | 35990 ft | 416 kts | 283° |
| 2026-05-07 14:23 | 47.59467 | 6.88794 | 35997 ft | 416 kts | 283° |
| 2026-05-07 14:23 | 47.60803 | 6.80473 | 35993 ft | 415 kts | 283° |
| 2026-05-07 14:24 | 47.62120 | 6.72228 | 35998 ft | 415 kts | 283° |
| 2026-05-07 14:24 | 47.63445 | 6.63895 | 35997 ft | 415 kts | 283° |
| 2026-05-07 14:25 | 47.64761 | 6.55576 | 35997 ft | 416 kts | 283° |
| 2026-05-07 14:25 | 47.66061 | 6.47310 | 35996 ft | 416 kts | 283° |
| 2026-05-07 14:26 | 47.67365 | 6.38974 | 36001 ft | 416 kts | 283° |
| 2026-05-07 14:26 | 47.68689 | 6.30603 | 35990 ft | 417 kts | 284° |
| 2026-05-07 14:27 | 47.70358 | 6.22377 | 36009 ft | 417 kts | 286° |
| 2026-05-07 14:27 | 47.72101 | 6.14192 | 35997 ft | 417 kts | 286° |
| 2026-05-07 14:28 | 47.73830 | 6.06045 | 35997 ft | 416 kts | 286° |
| 2026-05-07 14:28 | 47.75559 | 5.97857 | 36002 ft | 416 kts | 286° |
| 2026-05-07 14:29 | 47.77280 | 5.89660 | 35986 ft | 417 kts | 286° |
| 2026-05-07 14:29 | 47.78987 | 5.81503 | 35981 ft | 417 kts | 286° |
| 2026-05-07 14:30 | 47.80699 | 5.73287 | 35979 ft | 417 kts | 286° |
| 2026-05-07 14:30 | 47.82407 | 5.65056 | 35976 ft | 418 kts | 286° |
| 2026-05-07 14:31 | 47.84116 | 5.56787 | 35976 ft | 418 kts | 286° |
| 2026-05-07 14:31 | 47.84953 | 5.52725 | 35774 ft | 418 kts | 286° |
| 2026-05-07 14:31 | 47.85808 | 5.48563 | 35858 ft | 419 kts | 286° |
| 2026-05-07 14:32 | 47.87501 | 5.40302 | 35937 ft | 420 kts | 286° |
| 2026-05-07 14:32 | 47.89420 | 5.32118 | 35965 ft | 421 kts | 291° |
| 2026-05-07 14:33 | 47.92063 | 5.24347 | 35972 ft | 423 kts | 299° |
| 2026-05-07 14:33 | 47.95427 | 5.17139 | 35971 ft | 425 kts | 307° |
| 2026-05-07 14:34 | 47.99320 | 5.10531 | 35981 ft | 426 kts | 310° |
| 2026-05-07 14:34 | 48.03272 | 5.04034 | 35989 ft | 426 kts | 310° |
| 2026-05-07 14:35 | 48.07236 | 4.97496 | 35978 ft | 426 kts | 310° |
| 2026-05-07 14:35 | 48.11208 | 4.90915 | 35978 ft | 426 kts | 310° |
| 2026-05-07 14:36 | 48.15153 | 4.84358 | 35987 ft | 426 kts | 310° |
| 2026-05-07 14:36 | 48.19089 | 4.77800 | 35986 ft | 426 kts | 310° |
| 2026-05-07 14:37 | 48.23038 | 4.71199 | 35979 ft | 426 kts | 310° |
| 2026-05-07 14:37 | 48.28962 | 4.61268 | 35982 ft | 427 kts | 310° |
| 2026-05-07 14:38 | 48.32899 | 4.54645 | 35985 ft | 427 kts | 310° |
| 2026-05-07 14:38 | 48.36840 | 4.47995 | 35984 ft | 427 kts | 310° |
| 2026-05-07 14:39 | 48.40778 | 4.41334 | 35993 ft | 427 kts | 310° |
| 2026-05-07 14:39 | 48.44719 | 4.34650 | 35986 ft | 427 kts | 309° |
| 2026-05-07 14:40 | 48.48661 | 4.27945 | 35988 ft | 427 kts | 309° |
| 2026-05-07 14:40 | 48.52577 | 4.21270 | 35992 ft | 427 kts | 309° |
| 2026-05-07 14:41 | 48.56504 | 4.14557 | 35991 ft | 428 kts | 309° |
| 2026-05-07 14:41 | 48.60426 | 4.07836 | 35987 ft | 428 kts | 309° |
| 2026-05-07 14:42 | 48.64359 | 4.01079 | 35991 ft | 428 kts | 309° |
| 2026-05-07 14:42 | 48.68266 | 3.94346 | 35988 ft | 428 kts | 309° |
| 2026-05-07 14:43 | 48.72206 | 3.87603 | 35995 ft | 429 kts | 311° |
| 2026-05-07 14:43 | 48.76414 | 3.81205 | 35996 ft | 430 kts | 314° |
| 2026-05-07 14:44 | 48.80670 | 3.74894 | 35988 ft | 430 kts | 314° |
| 2026-05-07 14:44 | 48.84938 | 3.68543 | 35999 ft | 430 kts | 314° |
| 2026-05-07 14:45 | 48.89166 | 3.62226 | 35994 ft | 430 kts | 313° |
| 2026-05-07 14:45 | 48.93424 | 3.55845 | 35999 ft | 430 kts | 313° |
| 2026-05-07 14:46 | 48.97672 | 3.49459 | 35996 ft | 429 kts | 313° |
| 2026-05-07 14:46 | 49.01893 | 3.43101 | 36003 ft | 429 kts | 313° |
| 2026-05-07 14:47 | 49.06117 | 3.36721 | 36006 ft | 430 kts | 313° |
| 2026-05-07 14:47 | 49.10364 | 3.30290 | 36004 ft | 431 kts | 313° |
| 2026-05-07 14:48 | 49.14577 | 3.23894 | 36005 ft | 431 kts | 313° |
| 2026-05-07 14:48 | 49.18830 | 3.17421 | 36010 ft | 431 kts | 313° |
| 2026-05-07 14:49 | 49.23074 | 3.10945 | 36001 ft | 430 kts | 313° |
| 2026-05-07 14:49 | 49.27294 | 3.04490 | 36005 ft | 429 kts | 313° |
| 2026-05-07 14:50 | 49.31497 | 2.98045 | 36002 ft | 429 kts | 313° |
| 2026-05-07 14:50 | 49.35705 | 2.91574 | 36001 ft | 430 kts | 313° |
| 2026-05-07 14:51 | 49.39896 | 2.85110 | 36004 ft | 430 kts | 313° |
| 2026-05-07 14:51 | 49.44112 | 2.78593 | 36004 ft | 430 kts | 313° |
| 2026-05-07 14:52 | 49.48302 | 2.72099 | 36002 ft | 430 kts | 313° |
| 2026-05-07 14:52 | 49.52492 | 2.65589 | 36005 ft | 430 kts | 313° |
| 2026-05-07 14:53 | 49.56698 | 2.59036 | 36007 ft | 430 kts | 313° |
| 2026-05-07 14:53 | 49.60830 | 2.52459 | 36007 ft | 429 kts | 310° |
| 2026-05-07 14:54 | 49.64691 | 2.45548 | 36006 ft | 428 kts | 308° |
| 2026-05-07 14:54 | 49.68533 | 2.38548 | 36008 ft | 428 kts | 308° |
| 2026-05-07 14:55 | 49.72367 | 2.31548 | 36013 ft | 429 kts | 308° |
| 2026-05-07 14:55 | 49.76223 | 2.24499 | 36010 ft | 429 kts | 308° |
| 2026-05-07 14:56 | 49.80058 | 2.17474 | 36009 ft | 429 kts | 308° |
| 2026-05-07 14:56 | 49.83875 | 2.10464 | 36012 ft | 429 kts | 308° |
| 2026-05-07 14:57 | 49.87693 | 2.03431 | 36012 ft | 428 kts | 308° |
| 2026-05-07 14:57 | 49.89586 | 1.99939 | 35902 ft | 422 kts | 308° |
| 2026-05-07 14:57 | 49.91460 | 1.96477 | 35560 ft | 421 kts | 308° |
| 2026-05-07 14:58 | 49.93345 | 1.92989 | 35158 ft | 421 kts | 307° |
| 2026-05-07 14:58 | 49.95197 | 1.89558 | 34739 ft | 417 kts | 307° |
| 2026-05-07 14:58 | 49.97052 | 1.86116 | 34232 ft | 413 kts | 307° |
| 2026-05-07 14:58 | 49.98877 | 1.82721 | 33583 ft | 414 kts | 307° |
| 2026-05-07 14:59 | 50.00733 | 1.79263 | 32833 ft | 416 kts | 307° |
| 2026-05-07 14:59 | 50.02584 | 1.75811 | 32069 ft | 418 kts | 308° |
| 2026-05-07 14:59 | 50.04441 | 1.72347 | 31308 ft | 420 kts | 308° |
| 2026-05-07 14:59 | 50.06353 | 1.68979 | 30701 ft | 418 kts | 311° |
| 2026-05-07 15:00 | 50.08386 | 1.65767 | 30172 ft | 415 kts | 314° |
| 2026-05-07 15:00 | 50.10475 | 1.62795 | 29614 ft | 411 kts | 316° |
| 2026-05-07 15:00 | 50.12627 | 1.59862 | 29030 ft | 408 kts | 317° |
| 2026-05-07 15:00 | 50.14746 | 1.56995 | 28460 ft | 405 kts | 317° |
| 2026-05-07 15:01 | 50.16865 | 1.54127 | 27890 ft | 402 kts | 317° |
| 2026-05-07 15:01 | 50.18964 | 1.51280 | 27336 ft | 398 kts | 317° |
| 2026-05-07 15:01 | 50.21030 | 1.48470 | 26785 ft | 394 kts | 317° |
| 2026-05-07 15:01 | 50.23073 | 1.45686 | 26229 ft | 391 kts | 317° |
| 2026-05-07 15:02 | 50.25113 | 1.42901 | 25655 ft | 389 kts | 317° |
| 2026-05-07 15:02 | 50.27134 | 1.40139 | 25081 ft | 386 kts | 317° |
| 2026-05-07 15:02 | 50.29127 | 1.37412 | 24513 ft | 383 kts | 317° |
| 2026-05-07 15:02 | 50.31109 | 1.34695 | 23961 ft | 381 kts | 316° |
| 2026-05-07 15:03 | 50.33108 | 1.31953 | 23421 ft | 378 kts | 316° |
| 2026-05-07 15:03 | 50.35074 | 1.29252 | 22783 ft | 378 kts | 316° |
| 2026-05-07 15:03 | 50.37032 | 1.26559 | 22146 ft | 378 kts | 316° |
| 2026-05-07 15:03 | 50.38985 | 1.23870 | 21605 ft | 376 kts | 316° |
| 2026-05-07 15:04 | 50.40935 | 1.21183 | 21094 ft | 373 kts | 316° |
| 2026-05-07 15:04 | 50.42872 | 1.18509 | 20590 ft | 370 kts | 316° |
| 2026-05-07 15:04 | 50.44788 | 1.15861 | 20087 ft | 368 kts | 316° |
| 2026-05-07 15:04 | 50.46694 | 1.13224 | 19588 ft | 365 kts | 316° |
| 2026-05-07 15:05 | 50.48598 | 1.10587 | 19095 ft | 363 kts | 316° |
| 2026-05-07 15:05 | 50.50475 | 1.07979 | 18609 ft | 360 kts | 316° |
| 2026-05-07 15:05 | 50.52255 | 1.05285 | 18127 ft | 357 kts | 312° |
| 2026-05-07 15:05 | 50.53943 | 1.02488 | 17652 ft | 355 kts | 311° |
| 2026-05-07 15:06 | 50.55616 | 0.99667 | 17170 ft | 353 kts | 311° |
| 2026-05-07 15:06 | 50.57284 | 0.96842 | 16686 ft | 351 kts | 311° |
| 2026-05-07 15:06 | 50.58931 | 0.94054 | 16226 ft | 349 kts | 311° |
| 2026-05-07 15:06 | 50.60587 | 0.91253 | 16045 ft | 348 kts | 311° |
| 2026-05-07 15:07 | 50.62214 | 0.88498 | 16044 ft | 349 kts | 311° |
| 2026-05-07 15:07 | 50.63886 | 0.85666 | 16043 ft | 350 kts | 311° |
| 2026-05-07 15:07 | 50.65539 | 0.82864 | 16040 ft | 350 kts | 311° |
| 2026-05-07 15:07 | 50.67180 | 0.80071 | 16040 ft | 350 kts | 310° |
| 2026-05-07 15:08 | 50.68725 | 0.77180 | 16006 ft | 343 kts | 308° |
| 2026-05-07 15:08 | 50.70193 | 0.74315 | 15813 ft | 333 kts | 307° |
| 2026-05-07 15:08 | 50.71616 | 0.71517 | 15640 ft | 323 kts | 307° |
| 2026-05-07 15:08 | 50.73007 | 0.68776 | 15463 ft | 314 kts | 308° |
| 2026-05-07 15:09 | 50.74348 | 0.66136 | 15184 ft | 309 kts | 308° |
| 2026-05-07 15:09 | 50.75682 | 0.63509 | 14798 ft | 308 kts | 308° |
| 2026-05-07 15:09 | 50.77016 | 0.60884 | 14422 ft | 307 kts | 308° |
| 2026-05-07 15:09 | 50.78355 | 0.58248 | 14038 ft | 306 kts | 308° |
| 2026-05-07 15:10 | 50.79671 | 0.55656 | 13672 ft | 305 kts | 308° |
| 2026-05-07 15:10 | 50.80995 | 0.53050 | 13322 ft | 303 kts | 308° |
| 2026-05-07 15:10 | 50.82308 | 0.50462 | 12978 ft | 301 kts | 308° |
| 2026-05-07 15:10 | 50.83608 | 0.47898 | 12631 ft | 300 kts | 308° |
| 2026-05-07 15:11 | 50.84902 | 0.45344 | 12286 ft | 298 kts | 308° |
| 2026-05-07 15:11 | 50.86193 | 0.42792 | 12044 ft | 295 kts | 308° |
| 2026-05-07 15:11 | 50.87479 | 0.40244 | 12033 ft | 297 kts | 308° |
| 2026-05-07 15:11 | 50.88762 | 0.37701 | 12027 ft | 297 kts | 308° |
| 2026-05-07 15:12 | 50.90048 | 0.35149 | 12024 ft | 298 kts | 308° |
| 2026-05-07 15:12 | 50.91342 | 0.32578 | 12025 ft | 298 kts | 307° |
| 2026-05-07 15:12 | 50.92613 | 0.30053 | 11919 ft | 294 kts | 307° |
| 2026-05-07 15:12 | 50.93899 | 0.27493 | 11521 ft | 295 kts | 307° |
| 2026-05-07 15:13 | 50.95165 | 0.24962 | 11157 ft | 294 kts | 307° |
| 2026-05-07 15:13 | 50.96419 | 0.22429 | 10819 ft | 292 kts | 307° |
| 2026-05-07 15:13 | 50.97650 | 0.19934 | 10475 ft | 291 kts | 307° |
| 2026-05-07 15:13 | 50.98894 | 0.17410 | 10134 ft | 289 kts | 307° |
| 2026-05-07 15:14 | 51.00127 | 0.14909 | 9799 ft | 287 kts | 307° |
| 2026-05-07 15:14 | 51.01313 | 0.12400 | 9567 ft | 281 kts | 300° |
| 2026-05-07 15:14 | 51.01902 | 0.09550 | 9395 ft | 271 kts | 275° |
| 2026-05-07 15:14 | 51.02019 | 0.06620 | 9251 ft | 262 kts | 272° |
| 2026-05-07 15:15 | 51.02113 | 0.03757 | 9096 ft | 255 kts | 272° |
| 2026-05-07 15:15 | 51.02211 | 0.00993 | 8916 ft | 249 kts | 272° |
| 2026-05-07 15:15 | 51.02314 | -0.01730 | 8638 ft | 247 kts | 273° |
| 2026-05-07 15:15 | 51.02422 | -0.04443 | 8326 ft | 247 kts | 273° |
| 2026-05-07 15:16 | 51.02533 | -0.07175 | 8019 ft | 247 kts | 273° |
| 2026-05-07 15:16 | 51.02645 | -0.09867 | 7716 ft | 247 kts | 274° |
| 2026-05-07 15:16 | 51.02759 | -0.12602 | 7415 ft | 246 kts | 274° |
| 2026-05-07 15:16 | 51.02871 | -0.15283 | 7125 ft | 245 kts | 274° |
| 2026-05-07 15:17 | 51.02983 | -0.17981 | 6834 ft | 244 kts | 274° |
| 2026-05-07 15:17 | 51.03095 | -0.20667 | 6551 ft | 243 kts | 274° |
| 2026-05-07 15:17 | 51.03204 | -0.23326 | 6268 ft | 242 kts | 274° |
| 2026-05-07 15:17 | 51.03313 | -0.25979 | 5991 ft | 241 kts | 274° |
| 2026-05-07 15:18 | 51.03422 | -0.28636 | 5703 ft | 241 kts | 274° |
| 2026-05-07 15:18 | 51.03528 | -0.31261 | 5427 ft | 240 kts | 274° |
| 2026-05-07 15:18 | 51.03636 | -0.33923 | 5150 ft | 239 kts | 274° |
| 2026-05-07 15:18 | 51.03741 | -0.36529 | 4874 ft | 238 kts | 274° |
| 2026-05-07 15:19 | 51.03845 | -0.39149 | 4604 ft | 237 kts | 274° |
| 2026-05-07 15:19 | 51.03948 | -0.41753 | 4341 ft | 236 kts | 274° |
| 2026-05-07 15:19 | 51.04050 | -0.44335 | 4073 ft | 235 kts | 274° |
| 2026-05-07 15:19 | 51.04151 | -0.46913 | 3811 ft | 234 kts | 274° |
| 2026-05-07 15:20 | 51.04270 | -0.49465 | 3570 ft | 232 kts | 279° |
| 2026-05-07 15:20 | 51.04898 | -0.51746 | 3422 ft | 226 kts | 314° |
| 2026-05-07 15:20 | 51.06208 | -0.52994 | 3290 ft | 219 kts | 351° |
| 2026-05-07 15:20 | 51.07659 | -0.52765 | 3147 ft | 210 kts | 28° |
| 2026-05-07 15:21 | 51.08784 | -0.51364 | 2995 ft | 205 kts | 47° |
| 2026-05-07 15:21 | 51.09738 | -0.49690 | 2975 ft | 203 kts | 51° |
| 2026-05-07 15:21 | 51.10516 | -0.47895 | 3045 ft | 195 kts | 64° |
| 2026-05-07 15:21 | 51.11017 | -0.45912 | 3010 ft | 187 kts | 74° |
| 2026-05-07 15:22 | 51.11372 | -0.43973 | 2984 ft | 184 kts | 76° |
| 2026-05-07 15:22 | 51.11683 | -0.42006 | 2865 ft | 183 kts | 78° |
| 2026-05-07 15:22 | 51.11957 | -0.40074 | 2649 ft | 174 kts | 79° |
| 2026-05-07 15:22 | 51.12206 | -0.38223 | 2410 ft | 172 kts | 80° |
| 2026-05-07 15:23 | 51.12454 | -0.36369 | 2179 ft | 171 kts | 79° |
| 2026-05-07 15:23 | 51.12702 | -0.34516 | 1947 ft | 171 kts | 79° |
| 2026-05-07 15:23 | 51.12949 | -0.32697 | 1728 ft | 163 kts | 79° |
| 2026-05-07 15:23 | 51.13182 | -0.30975 | 1512 ft | 159 kts | 79° |
| 2026-05-07 15:24 | 51.13415 | -0.29263 | 1305 ft | 158 kts | 79° |
| 2026-05-07 15:24 | 51.13646 | -0.27566 | 1101 ft | 156 kts | 79° |
| 2026-05-07 15:24 | 51.13869 | -0.25945 | 881 ft | 143 kts | 79° |
| 2026-05-07 15:24 | 51.14070 | -0.24478 | 686 ft | 131 kts | 80° |
| 2026-05-07 15:25 | 51.14260 | -0.23110 | 488 ft | 125 kts | 80° |
| 2026-05-07 15:25 | 51.14443 | -0.21765 | 351 ft | 124 kts | 81° |
| 2026-05-07 15:25 | 51.14624 | -0.20414 | 230 ft | 123 kts | 79° |
| 2026-05-07 15:25 | 51.14803 | -0.19113 | 200 ft | 106 kts | 78° |
| 2026-05-07 15:26 | 51.14923 | -0.18231 | 200 ft | 57 kts | 77° |
| 2026-05-07 15:26 | 51.14986 | -0.17774 | 200 ft | 37 kts | 79° |
| 2026-05-07 15:26 | 51.15037 | -0.17453 | 200 ft | 27 kts | 70° |
| 2026-05-07 15:26 | 51.15097 | -0.17255 | 200 ft | 11 kts | 58° |
| 2026-05-07 15:27 | 51.15167 | -0.17183 | 200 ft | 12 kts | 16° |
| 2026-05-07 15:27 | 51.15257 | -0.17203 | 200 ft | 14 kts | 332° |
| 2026-05-07 15:27 | 51.15356 | -0.17242 | 200 ft | 15 kts | 6° |
| 2026-05-07 15:27 | 51.15400 | -0.17150 | 200 ft | 11 kts | 64° |
| 2026-05-07 15:28 | 51.15421 | -0.17026 | 200 ft | 12 kts | 78° |
| 2026-05-07 15:28 | 51.15434 | -0.16950 | 200 ft | 2 kts | 40° |
| 2026-05-07 15:28 | 51.15456 | -0.16952 | 200 ft | 4 kts | 349° |
| 2026-05-07 15:28 | 51.15485 | -0.16962 | 200 ft | 0 kts | 348° |
| 2026-05-07 15:29 | 51.15486 | -0.16962 | 200 ft | 0 kts | 348° |